createdAt,value
2023-02-05T00:04:12.393Z,0.00
2023-02-05T00:09:12.402Z,0.00
2023-02-05T00:14:12.265Z,0.00
2023-02-05T00:19:12.216Z,0.00
2023-02-05T00:24:12.184Z,0.00
2023-02-05T00:29:12.142Z,0.00
2023-02-05T00:34:12.027Z,0.00
2023-02-05T00:39:11.986Z,0.00
2023-02-05T00:44:11.874Z,0.00
2023-02-05T00:49:11.848Z,0.00
2023-02-05T00:54:11.779Z,0.00
2023-02-05T00:59:11.709Z,0.00
2023-02-05T01:04:11.672Z,0.00
2023-02-05T01:09:29.052Z,0.00
2023-02-05T01:14:21.345Z,0.00
2023-02-05T01:19:21.329Z,0.00
2023-02-05T01:24:21.217Z,0.00
2023-02-05T01:29:21.231Z,0.00
2023-02-05T01:34:21.201Z,0.00
2023-02-05T01:39:21.135Z,0.00
2023-02-05T01:44:21.320Z,0.00
2023-02-05T01:49:20.881Z,0.00
2023-02-05T01:54:20.847Z,0.00
2023-02-05T01:59:20.789Z,0.00
2023-02-05T02:04:20.774Z,0.00
2023-02-05T02:09:20.611Z,0.00
2023-02-05T02:14:20.566Z,0.00
2023-02-05T02:19:20.493Z,0.00
2023-02-05T02:24:20.457Z,0.00
2023-02-05T02:29:20.395Z,0.00
2023-02-05T02:34:20.292Z,0.00
2023-02-05T02:39:20.233Z,0.00
2023-02-05T02:44:20.190Z,0.00
2023-02-05T02:49:20.112Z,0.00
2023-02-05T02:54:20.037Z,0.00
2023-02-05T02:59:19.971Z,0.00
2023-02-05T03:04:19.966Z,0.00
2023-02-05T03:09:19.838Z,0.00
2023-02-05T03:14:19.773Z,0.00
2023-02-05T03:19:20.039Z,0.00
2023-02-05T03:24:19.617Z,0.00
2023-02-05T03:29:19.549Z,0.00
2023-02-05T03:34:19.502Z,0.00
2023-02-05T03:39:19.478Z,0.00
2023-02-05T03:44:19.374Z,0.00
2023-02-05T03:49:19.330Z,0.00
2023-02-05T03:54:19.313Z,0.00
2023-02-05T03:59:19.198Z,0.00
2023-02-05T04:04:19.096Z,0.00
2023-02-05T04:09:19.038Z,0.00
2023-02-05T04:14:18.998Z,0.00
2023-02-05T04:19:18.918Z,0.00
2023-02-05T04:24:18.900Z,0.00
2023-02-05T04:29:18.756Z,0.00
2023-02-05T04:34:18.716Z,0.00
2023-02-05T04:39:18.605Z,0.00
2023-02-05T04:44:18.556Z,0.00
2023-02-05T04:49:18.514Z,0.00
2023-02-05T04:54:18.427Z,0.00
2023-02-05T04:59:18.430Z,0.00
2023-02-05T05:04:18.318Z,0.00
2023-02-05T05:09:18.284Z,0.00
2023-02-05T05:14:18.191Z,0.00
2023-02-05T05:19:18.136Z,0.00
2023-02-05T05:24:18.061Z,0.00
2023-02-05T05:29:17.992Z,0.00
2023-02-05T05:34:17.933Z,0.00
2023-02-05T05:39:17.851Z,0.00
2023-02-05T05:44:17.776Z,0.00
2023-02-05T05:49:17.726Z,0.00
2023-02-05T05:54:17.650Z,0.00
2023-02-05T05:59:17.573Z,0.00
2023-02-05T06:04:17.535Z,0.00
2023-02-05T06:09:17.453Z,0.00
2023-02-05T06:14:17.381Z,0.00
2023-02-05T06:19:17.362Z,0.00
2023-02-05T06:24:17.237Z,0.00
2023-02-05T06:29:17.189Z,0.00
2023-02-05T06:34:17.155Z,0.00
2023-02-05T06:39:17.056Z,0.00
2023-02-05T06:44:16.965Z,0.00
2023-02-05T06:49:16.934Z,0.00
2023-02-05T06:54:16.844Z,8.00
2023-02-05T06:59:16.842Z,16.00
2023-02-05T07:04:32.924Z,28.00
2023-02-05T07:09:25.320Z,36.00
2023-02-05T07:14:25.239Z,52.00
2023-02-05T07:19:25.250Z,96.00
2023-02-05T07:24:25.121Z,168.00
2023-02-05T07:29:25.073Z,84.00
2023-02-05T07:34:25.026Z,80.00
2023-02-05T07:39:24.930Z,124.00
2023-02-05T07:44:24.876Z,80.00
2023-02-05T07:49:24.783Z,248.00
2023-02-05T07:54:24.727Z,264.00
2023-02-05T07:59:24.659Z,384.00
2023-02-05T08:04:24.665Z,748.00
2023-02-05T08:09:24.497Z,648.00
2023-02-05T08:14:24.464Z,604.00
2023-02-05T08:19:24.394Z,764.00
2023-02-05T08:24:24.343Z,616.00
2023-02-05T08:29:24.271Z,848.00
2023-02-05T08:34:24.192Z,416.00
2023-02-05T08:39:24.117Z,428.00
2023-02-05T08:44:24.064Z,288.00
2023-02-05T08:49:23.974Z,480.00
2023-02-05T08:54:23.920Z,492.00
2023-02-05T08:59:23.967Z,472.00
2023-02-05T09:04:23.833Z,544.00
2023-02-05T09:09:23.730Z,548.00
2023-02-05T09:14:23.667Z,504.00
2023-02-05T09:19:23.582Z,392.00
2023-02-05T09:24:23.541Z,740.00
2023-02-05T09:29:23.457Z,860.00
2023-02-05T09:34:23.446Z,728.00
2023-02-05T09:39:52.650Z,568.00
2023-02-05T09:44:24.273Z,588.00
2023-02-05T09:49:23.211Z,636.00
2023-02-05T09:54:23.130Z,700.00
2023-02-05T09:59:23.069Z,688.00
2023-02-05T10:04:23.079Z,436.00
2023-02-05T10:09:22.944Z,792.00
2023-02-05T10:14:24.689Z,1056.00
2023-02-05T10:19:22.812Z,944.00
2023-02-05T10:24:22.743Z,1108.00
2023-02-05T10:29:22.677Z,580.00
2023-02-05T10:34:22.627Z,600.00
2023-02-05T10:39:22.533Z,332.00
2023-02-05T10:44:22.484Z,428.00
2023-02-05T10:49:22.408Z,336.00
2023-02-05T10:54:22.344Z,780.00
2023-02-05T10:59:22.266Z,1568.00
2023-02-05T11:04:22.204Z,2364.00
2023-02-05T11:09:22.151Z,10488.00
2023-02-05T11:14:22.114Z,6528.00
2023-02-05T11:19:23.164Z,3900.00
2023-02-05T11:24:21.996Z,2860.00
2023-02-05T11:29:21.909Z,11696.00
2023-02-05T11:34:21.849Z,6268.00
2023-02-05T11:39:21.736Z,7156.00
2023-02-05T11:44:21.718Z,5112.00
2023-02-05T11:49:21.634Z,2672.00
2023-02-05T11:54:21.602Z,2956.00
2023-02-05T11:59:21.502Z,2880.00
2023-02-05T12:04:21.432Z,2560.00
2023-02-05T12:09:21.501Z,2696.00
2023-02-05T12:14:21.306Z,3144.00
2023-02-05T12:19:21.202Z,1960.00
2023-02-05T12:24:21.186Z,3404.00
2023-02-05T12:29:21.117Z,3544.00
2023-02-05T12:34:21.042Z,3892.00
2023-02-05T12:39:21.000Z,1332.00
2023-02-05T12:44:20.937Z,2100.00
2023-02-05T12:49:20.844Z,1424.00
2023-02-05T12:54:20.844Z,1264.00
2023-02-05T12:59:20.724Z,1592.00
2023-02-05T13:04:20.744Z,1292.00
2023-02-05T13:09:20.564Z,1488.00
2023-02-05T13:14:20.537Z,2260.00
2023-02-05T13:19:20.443Z,1576.00
2023-02-05T13:24:20.423Z,1504.00
2023-02-05T13:29:20.349Z,1164.00
2023-02-05T13:34:20.265Z,1048.00
2023-02-05T13:39:22.652Z,880.00
2023-02-05T13:44:20.124Z,912.00
2023-02-05T13:49:20.052Z,1340.00
2023-02-05T13:54:19.984Z,928.00
2023-02-05T13:59:20.548Z,1008.00
2023-02-05T14:04:19.875Z,712.00
2023-02-05T14:09:19.786Z,864.00
2023-02-05T14:14:19.737Z,648.00
2023-02-05T14:19:19.673Z,556.00
2023-02-05T14:24:19.604Z,644.00
2023-02-05T14:29:19.517Z,476.00
2023-02-05T14:34:22.528Z,324.00
2023-02-05T14:39:19.394Z,364.00
2023-02-05T14:44:19.362Z,392.00
2023-02-05T14:49:19.248Z,448.00
2023-02-05T14:54:19.199Z,468.00
2023-02-05T14:59:19.120Z,464.00
2023-02-05T15:04:19.073Z,292.00
2023-02-05T15:09:19.010Z,320.00
2023-02-05T15:14:18.967Z,364.00
2023-02-05T15:19:18.872Z,280.00
2023-02-05T15:24:18.837Z,216.00
2023-02-05T15:29:18.744Z,276.00
2023-02-05T15:34:18.669Z,172.00
2023-02-05T15:39:18.617Z,124.00
2023-02-05T15:44:18.556Z,96.00
2023-02-05T15:49:18.534Z,72.00
2023-02-05T15:54:18.414Z,96.00
2023-02-05T15:59:18.362Z,88.00
2023-02-05T16:04:18.324Z,92.00
2023-02-05T16:09:18.252Z,60.00
2023-02-05T16:14:18.154Z,36.00
2023-02-05T16:19:18.132Z,24.00
2023-02-05T16:24:18.017Z,20.00
2023-02-05T16:29:25.772Z,8.00
2023-02-05T16:34:18.901Z,8.00
2023-02-05T16:39:17.869Z,0.00
2023-02-05T16:44:17.737Z,0.00
2023-02-05T16:49:17.734Z,0.00
2023-02-05T16:54:17.613Z,0.00
2023-02-05T16:59:17.622Z,0.00
2023-02-05T17:04:17.488Z,0.00
2023-02-05T17:09:17.457Z,0.00
2023-02-05T17:14:17.367Z,0.00
2023-02-05T17:19:17.316Z,0.00
2023-02-05T17:24:17.232Z,0.00
2023-02-05T17:29:17.186Z,0.00
2023-02-05T17:34:17.194Z,0.00
2023-02-05T17:39:17.697Z,0.00
2023-02-05T17:44:17.008Z,0.00
2023-02-05T17:49:17.296Z,0.00
2023-02-05T17:54:16.848Z,0.00
2023-02-05T17:59:16.780Z,0.00
2023-02-05T18:04:16.694Z,0.00
2023-02-05T18:09:16.679Z,0.00
2023-02-05T18:14:16.578Z,0.00
2023-02-05T18:19:16.520Z,0.00
2023-02-05T18:24:16.471Z,0.00
2023-02-05T18:29:16.435Z,0.00
2023-02-05T18:34:16.322Z,0.00
2023-02-05T18:39:16.296Z,0.00
2023-02-05T18:44:16.182Z,0.00
2023-02-05T18:49:17.322Z,0.00
2023-02-05T18:54:16.030Z,0.00
2023-02-05T18:59:15.993Z,0.00
2023-02-05T19:04:15.911Z,0.00
2023-02-05T19:09:15.964Z,0.00
2023-02-05T19:14:15.761Z,0.00
2023-02-05T19:19:16.338Z,0.00
2023-02-05T19:24:15.645Z,0.00
2023-02-05T19:29:15.653Z,0.00
2023-02-05T19:34:15.542Z,0.00
2023-02-05T19:39:15.460Z,0.00
2023-02-05T19:44:15.387Z,0.00
2023-02-05T19:49:15.367Z,0.00
2023-02-05T19:54:15.253Z,0.00
2023-02-05T19:59:15.221Z,0.00
2023-02-05T20:04:17.236Z,0.00
2023-02-05T20:09:15.072Z,0.00
2023-02-05T20:14:14.986Z,0.00
2023-02-05T20:19:14.970Z,0.00
2023-02-05T20:24:14.885Z,0.00
2023-02-05T20:29:14.804Z,0.00
2023-02-05T20:34:14.750Z,0.00
2023-02-05T20:39:14.666Z,0.00
2023-02-05T20:44:14.655Z,0.00
2023-02-05T20:49:14.577Z,0.00
2023-02-05T20:54:14.446Z,0.00
2023-02-05T20:59:14.391Z,0.00
2023-02-05T21:04:14.337Z,0.00
2023-02-05T21:09:14.285Z,0.00
2023-02-05T21:14:14.200Z,0.00
2023-02-05T21:19:14.126Z,0.00
2023-02-05T21:24:14.048Z,0.00
2023-02-05T21:29:14.006Z,0.00
2023-02-05T21:34:13.937Z,0.00
2023-02-05T21:39:13.870Z,0.00
2023-02-05T21:44:13.761Z,0.00
2023-02-05T21:49:13.749Z,0.00
2023-02-05T21:54:13.674Z,0.00
2023-02-05T21:59:13.585Z,0.00
2023-02-05T22:04:13.534Z,0.00
2023-02-05T22:09:13.470Z,0.00
2023-02-05T22:14:13.404Z,0.00
2023-02-05T22:19:13.319Z,0.00
2023-02-05T22:24:13.303Z,0.00
2023-02-05T22:29:13.225Z,0.00
2023-02-05T22:34:13.166Z,0.00
2023-02-05T22:39:13.093Z,0.00
2023-02-05T22:44:13.028Z,0.00
2023-02-05T22:49:12.957Z,0.00
2023-02-05T22:54:12.874Z,0.00
2023-02-05T22:59:12.825Z,0.00
2023-02-05T23:04:12.745Z,0.00
2023-02-05T23:09:12.683Z,0.00
2023-02-05T23:14:12.620Z,0.00
2023-02-05T23:19:12.559Z,0.00
2023-02-05T23:24:12.458Z,0.00
2023-02-05T23:29:12.421Z,0.00
2023-02-05T23:34:12.339Z,0.00
2023-02-05T23:39:12.355Z,0.00
2023-02-05T23:44:12.226Z,0.00
2023-02-05T23:49:12.152Z,0.00
2023-02-05T23:54:12.121Z,0.00
2023-02-05T23:59:12.030Z,0.00
